sensor_id;sensor_type;location;lat;lon;timestamp;P1;durP1;ratioP1;P2;durP2;ratioP2
33279;SDS011;20403;43.114;12.434;2023-02-28T00:00:20;6.10;;;2.20;;
33279;SDS011;20403;43.114;12.434;2023-02-28T00:02:46;5.88;;;2.63;;
33279;SDS011;20403;43.114;12.434;2023-02-28T00:05:13;6.03;;;1.98;;
33279;SDS011;20403;43.114;12.434;2023-02-28T00:07:40;4.53;;;2.15;;
33279;SDS011;20403;43.114;12.434;2023-02-28T00:10:07;5.85;;;2.20;;
33279;SDS011;20403;43.114;12.434;2023-02-28T00:12:38;11.95;;;2.63;;
33279;SDS011;20403;43.114;12.434;2023-02-28T00:15:08;6.60;;;2.05;;
33279;SDS011;20403;43.114;12.434;2023-02-28T00:17:34;7.57;;;2.60;;
33279;SDS011;20403;43.114;12.434;2023-02-28T00:20:00;3.60;;;2.00;;
33279;SDS011;20403;43.114;12.434;2023-02-28T00:22:29;3.40;;;2.22;;
33279;SDS011;20403;43.114;12.434;2023-02-28T00:24:55;3.97;;;2.45;;
33279;SDS011;20403;43.114;12.434;2023-02-28T00:27:21;7.22;;;2.70;;
33279;SDS011;20403;43.114;12.434;2023-02-28T00:29:46;3.63;;;2.17;;
33279;SDS011;20403;43.114;12.434;2023-02-28T00:32:12;5.15;;;2.28;;
33279;SDS011;20403;43.114;12.434;2023-02-28T00:34:38;5.13;;;2.42;;
33279;SDS011;20403;43.114;12.434;2023-02-28T00:37:04;5.28;;;2.58;;
33279;SDS011;20403;43.114;12.434;2023-02-28T00:39:31;4.95;;;2.38;;
33279;SDS011;20403;43.114;12.434;2023-02-28T00:41:56;4.65;;;2.50;;
33279;SDS011;20403;43.114;12.434;2023-02-28T00:44:21;6.05;;;2.20;;
33279;SDS011;20403;43.114;12.434;2023-02-28T00:46:47;6.43;;;2.60;;
33279;SDS011;20403;43.114;12.434;2023-02-28T00:49:12;7.60;;;2.55;;
33279;SDS011;20403;43.114;12.434;2023-02-28T00:51:38;5.70;;;2.83;;
33279;SDS011;20403;43.114;12.434;2023-02-28T00:54:03;4.65;;;2.42;;
33279;SDS011;20403;43.114;12.434;2023-02-28T00:56:28;13.20;;;2.60;;
33279;SDS011;20403;43.114;12.434;2023-02-28T00:58:54;4.20;;;2.47;;
33279;SDS011;20403;43.114;12.434;2023-02-28T01:01:19;7.18;;;2.67;;
33279;SDS011;20403;43.114;12.434;2023-02-28T01:03:44;4.57;;;2.70;;
33279;SDS011;20403;43.114;12.434;2023-02-28T01:06:10;6.20;;;2.90;;
33279;SDS011;20403;43.114;12.434;2023-02-28T01:08:35;7.85;;;3.00;;
33279;SDS011;20403;43.114;12.434;2023-02-28T01:11:07;6.57;;;2.40;;
33279;SDS011;20403;43.114;12.434;2023-02-28T01:13:37;7.85;;;2.55;;
33279;SDS011;20403;43.114;12.434;2023-02-28T01:16:03;8.00;;;2.85;;
33279;SDS011;20403;43.114;12.434;2023-02-28T01:18:28;6.45;;;2.25;;
33279;SDS011;20403;43.114;12.434;2023-02-28T01:20:54;5.00;;;2.42;;
33279;SDS011;20403;43.114;12.434;2023-02-28T01:23:20;5.15;;;2.50;;
33279;SDS011;20403;43.114;12.434;2023-02-28T01:25:48;4.80;;;2.58;;
33279;SDS011;20403;43.114;12.434;2023-02-28T01:28:14;5.80;;;2.20;;
33279;SDS011;20403;43.114;12.434;2023-02-28T01:30:39;7.60;;;2.65;;
33279;SDS011;20403;43.114;12.434;2023-02-28T01:33:05;5.85;;;2.63;;
33279;SDS011;20403;43.114;12.434;2023-02-28T01:35:34;6.20;;;2.40;;
33279;SDS011;20403;43.114;12.434;2023-02-28T01:38:00;7.00;;;3.20;;
33279;SDS011;20403;43.114;12.434;2023-02-28T01:40:26;6.15;;;2.28;;
33279;SDS011;20403;43.114;12.434;2023-02-28T01:42:52;8.98;;;2.88;;
33279;SDS011;20403;43.114;12.434;2023-02-28T01:45:27;3.85;;;2.25;;
33279;SDS011;20403;43.114;12.434;2023-02-28T01:48:04;5.70;;;2.38;;
33279;SDS011;20403;43.114;12.434;2023-02-28T01:50:34;3.28;;;2.15;;
33279;SDS011;20403;43.114;12.434;2023-02-28T01:53:04;6.13;;;2.25;;
33279;SDS011;20403;43.114;12.434;2023-02-28T01:55:33;6.20;;;2.45;;
33279;SDS011;20403;43.114;12.434;2023-02-28T01:58:01;4.07;;;2.20;;
33279;SDS011;20403;43.114;12.434;2023-02-28T02:00:29;3.97;;;2.72;;
33279;SDS011;20403;43.114;12.434;2023-02-28T02:03:00;9.20;;;2.50;;
33279;SDS011;20403;43.114;12.434;2023-02-28T02:05:31;4.90;;;2.15;;
33279;SDS011;20403;43.114;12.434;2023-02-28T02:07:58;5.10;;;2.22;;
33279;SDS011;20403;43.114;12.434;2023-02-28T02:10:33;3.83;;;2.92;;
33279;SDS011;20403;43.114;12.434;2023-02-28T02:18:43;4.05;;;2.17;;
33279;SDS011;20403;43.114;12.434;2023-02-28T02:21:32;5.87;;;2.13;;
33279;SDS011;20403;43.114;12.434;2023-02-28T02:29:47;2.97;;;1.77;;
33279;SDS011;20403;43.114;12.434;2023-02-28T02:35:47;5.07;;;2.20;;
33279;SDS011;20403;43.114;12.434;2023-02-28T02:40:45;5.57;;;2.00;;
33279;SDS011;20403;43.114;12.434;2023-02-28T02:46:17;5.32;;;2.28;;
33279;SDS011;20403;43.114;12.434;2023-02-28T02:48:44;4.25;;;2.38;;
33279;SDS011;20403;43.114;12.434;2023-02-28T02:51:13;6.70;;;2.63;;
33279;SDS011;20403;43.114;12.434;2023-02-28T02:53:43;4.95;;;2.30;;
33279;SDS011;20403;43.114;12.434;2023-02-28T02:56:14;3.30;;;2.00;;
33279;SDS011;20403;43.114;12.434;2023-02-28T02:58:44;3.23;;;2.03;;
33279;SDS011;20403;43.114;12.434;2023-02-28T03:01:20;2.88;;;1.85;;
33279;SDS011;20403;43.114;12.434;2023-02-28T03:03:59;6.32;;;2.60;;
33279;SDS011;20403;43.114;12.434;2023-02-28T03:06:31;2.97;;;1.90;;
33279;SDS011;20403;43.114;12.434;2023-02-28T03:08:57;5.25;;;2.20;;
33279;SDS011;20403;43.114;12.434;2023-02-28T03:11:22;3.20;;;1.98;;
33279;SDS011;20403;43.114;12.434;2023-02-28T03:19:06;5.82;;;1.80;;
33279;SDS011;20403;43.114;12.434;2023-02-28T03:35:24;5.00;;;2.10;;
33279;SDS011;20403;43.114;12.434;2023-02-28T03:37:53;4.45;;;2.15;;
33279;SDS011;20403;43.114;12.434;2023-02-28T03:40:25;4.85;;;2.00;;
33279;SDS011;20403;43.114;12.434;2023-02-28T03:42:57;2.92;;;1.70;;
33279;SDS011;20403;43.114;12.434;2023-02-28T03:45:28;5.22;;;1.98;;
33279;SDS011;20403;43.114;12.434;2023-02-28T03:48:12;4.65;;;2.00;;
33279;SDS011;20403;43.114;12.434;2023-02-28T03:50:46;6.78;;;1.90;;
33279;SDS011;20403;43.114;12.434;2023-02-28T03:53:16;3.60;;;1.98;;
33279;SDS011;20403;43.114;12.434;2023-02-28T03:55:50;4.22;;;2.30;;
33279;SDS011;20403;43.114;12.434;2023-02-28T04:01:32;2.72;;;1.80;;
33279;SDS011;20403;43.114;12.434;2023-02-28T04:04:06;6.40;;;2.10;;
33279;SDS011;20403;43.114;12.434;2023-02-28T04:06:33;4.55;;;2.20;;
33279;SDS011;20403;43.114;12.434;2023-02-28T04:08:59;4.07;;;2.30;;
33279;SDS011;20403;43.114;12.434;2023-02-28T04:14:11;3.28;;;1.95;;
33279;SDS011;20403;43.114;12.434;2023-02-28T04:16:38;3.35;;;1.85;;
33279;SDS011;20403;43.114;12.434;2023-02-28T04:19:05;5.57;;;2.45;;
33279;SDS011;20403;43.114;12.434;2023-02-28T04:21:36;7.32;;;2.30;;
33279;SDS011;20403;43.114;12.434;2023-02-28T04:24:10;4.68;;;2.05;;
33279;SDS011;20403;43.114;12.434;2023-02-28T04:26:51;3.42;;;2.10;;
33279;SDS011;20403;43.114;12.434;2023-02-28T04:29:22;3.90;;;1.95;;
33279;SDS011;20403;43.114;12.434;2023-02-28T04:31:48;4.63;;;2.15;;
33279;SDS011;20403;43.114;12.434;2023-02-28T04:34:13;3.88;;;2.00;;
33279;SDS011;20403;43.114;12.434;2023-02-28T04:36:39;4.95;;;2.10;;
33279;SDS011;20403;43.114;12.434;2023-02-28T04:39:04;7.63;;;2.38;;
33279;SDS011;20403;43.114;12.434;2023-02-28T04:41:29;3.83;;;2.42;;
33279;SDS011;20403;43.114;12.434;2023-02-28T04:43:55;4.00;;;2.17;;
33279;SDS011;20403;43.114;12.434;2023-02-28T04:46:21;6.78;;;2.47;;
33279;SDS011;20403;43.114;12.434;2023-02-28T04:48:47;8.05;;;2.40;;
33279;SDS011;20403;43.114;12.434;2023-02-28T04:51:14;12.45;;;3.67;;
33279;SDS011;20403;43.114;12.434;2023-02-28T04:53:41;3.63;;;2.33;;
33279;SDS011;20403;43.114;12.434;2023-02-28T04:56:08;4.63;;;2.33;;
33279;SDS011;20403;43.114;12.434;2023-02-28T04:58:37;3.58;;;2.10;;
33279;SDS011;20403;43.114;12.434;2023-02-28T05:01:06;6.00;;;2.67;;
33279;SDS011;20403;43.114;12.434;2023-02-28T05:03:42;7.18;;;2.45;;
33279;SDS011;20403;43.114;12.434;2023-02-28T05:06:08;6.15;;;2.55;;
33279;SDS011;20403;43.114;12.434;2023-02-28T05:08:35;7.38;;;2.67;;
33279;SDS011;20403;43.114;12.434;2023-02-28T05:11:01;4.50;;;2.10;;
33279;SDS011;20403;43.114;12.434;2023-02-28T05:13:27;3.45;;;2.03;;
33279;SDS011;20403;43.114;12.434;2023-02-28T05:15:54;4.07;;;1.80;;
33279;SDS011;20403;43.114;12.434;2023-02-28T05:18:19;5.07;;;2.00;;
33279;SDS011;20403;43.114;12.434;2023-02-28T05:20:45;2.63;;;1.85;;
33279;SDS011;20403;43.114;12.434;2023-02-28T05:23:14;4.78;;;2.28;;
33279;SDS011;20403;43.114;12.434;2023-02-28T05:25:40;4.22;;;2.20;;
33279;SDS011;20403;43.114;12.434;2023-02-28T05:28:06;3.85;;;2.25;;
33279;SDS011;20403;43.114;12.434;2023-02-28T05:30:32;3.40;;;2.17;;
33279;SDS011;20403;43.114;12.434;2023-02-28T05:32:58;4.10;;;2.03;;
33279;SDS011;20403;43.114;12.434;2023-02-28T05:35:24;4.07;;;2.03;;
33279;SDS011;20403;43.114;12.434;2023-02-28T05:37:50;6.45;;;2.08;;
33279;SDS011;20403;43.114;12.434;2023-02-28T05:40:15;3.25;;;1.80;;
33279;SDS011;20403;43.114;12.434;2023-02-28T05:42:41;5.22;;;1.90;;
33279;SDS011;20403;43.114;12.434;2023-02-28T05:45:07;2.97;;;2.00;;
33279;SDS011;20403;43.114;12.434;2023-02-28T05:47:33;12.93;;;3.25;;
33279;SDS011;20403;43.114;12.434;2023-02-28T05:49:59;7.05;;;2.08;;
33279;SDS011;20403;43.114;12.434;2023-02-28T05:52:25;3.40;;;1.90;;
33279;SDS011;20403;43.114;12.434;2023-02-28T05:54:50;4.07;;;2.03;;
33279;SDS011;20403;43.114;12.434;2023-02-28T05:57:16;2.85;;;1.60;;
33279;SDS011;20403;43.114;12.434;2023-02-28T05:59:41;5.40;;;1.73;;
33279;SDS011;20403;43.114;12.434;2023-02-28T06:02:10;4.75;;;2.20;;
33279;SDS011;20403;43.114;12.434;2023-02-28T06:04:38;7.70;;;2.15;;
33279;SDS011;20403;43.114;12.434;2023-02-28T06:07:05;2.08;;;1.60;;
33279;SDS011;20403;43.114;12.434;2023-02-28T06:09:32;3.58;;;1.88;;
33279;SDS011;20403;43.114;12.434;2023-02-28T06:11:58;4.07;;;1.80;;
33279;SDS011;20403;43.114;12.434;2023-02-28T06:14:24;2.85;;;1.67;;
33279;SDS011;20403;43.114;12.434;2023-02-28T06:16:49;2.40;;;2.05;;
33279;SDS011;20403;43.114;12.434;2023-02-28T06:19:15;4.43;;;2.17;;
33279;SDS011;20403;43.114;12.434;2023-02-28T06:21:41;11.40;;;2.75;;
33279;SDS011;20403;43.114;12.434;2023-02-28T06:24:06;3.95;;;1.67;;
33279;SDS011;20403;43.114;12.434;2023-02-28T06:26:32;2.97;;;1.85;;
33279;SDS011;20403;43.114;12.434;2023-02-28T06:28:57;3.33;;;1.88;;
33279;SDS011;20403;43.114;12.434;2023-02-28T06:31:23;6.05;;;2.10;;
33279;SDS011;20403;43.114;12.434;2023-02-28T06:33:50;7.43;;;2.00;;
33279;SDS011;20403;43.114;12.434;2023-02-28T06:36:16;5.07;;;1.90;;
33279;SDS011;20403;43.114;12.434;2023-02-28T06:38:43;3.75;;;2.08;;
33279;SDS011;20403;43.114;12.434;2023-02-28T06:41:09;6.80;;;2.83;;
33279;SDS011;20403;43.114;12.434;2023-02-28T06:43:36;4.40;;;1.90;;
33279;SDS011;20403;43.114;12.434;2023-02-28T06:46:05;4.32;;;2.38;;
33279;SDS011;20403;43.114;12.434;2023-02-28T06:48:32;6.57;;;2.60;;
33279;SDS011;20403;43.114;12.434;2023-02-28T06:51:02;3.60;;;1.60;;
33279;SDS011;20403;43.114;12.434;2023-02-28T06:53:35;5.05;;;1.83;;
33279;SDS011;20403;43.114;12.434;2023-02-28T06:56:05;4.28;;;1.73;;
33279;SDS011;20403;43.114;12.434;2023-02-28T06:58:32;3.70;;;1.97;;
33279;SDS011;20403;43.114;12.434;2023-02-28T07:00:58;1.85;;;1.20;;
33279;SDS011;20403;43.114;12.434;2023-02-28T07:03:23;4.97;;;1.67;;
33279;SDS011;20403;43.114;12.434;2023-02-28T07:05:49;3.40;;;1.50;;
33279;SDS011;20403;43.114;12.434;2023-02-28T07:08:14;163.13;;;8.77;;
33279;SDS011;20403;43.114;12.434;2023-02-28T07:10:40;1.45;;;1.13;;
33279;SDS011;20403;43.114;12.434;2023-02-28T07:13:06;3.72;;;1.33;;
33279;SDS011;20403;43.114;12.434;2023-02-28T07:15:33;5.97;;;1.55;;
33279;SDS011;20403;43.114;12.434;2023-02-28T07:17:59;3.10;;;1.25;;
33279;SDS011;20403;43.114;12.434;2023-02-28T07:20:25;4.18;;;1.20;;
33279;SDS011;20403;43.114;12.434;2023-02-28T07:22:50;2.72;;;1.30;;
33279;SDS011;20403;43.114;12.434;2023-02-28T07:25:24;2.33;;;1.27;;
33279;SDS011;20403;43.114;12.434;2023-02-28T07:27:50;1.65;;;0.90;;
33279;SDS011;20403;43.114;12.434;2023-02-28T07:30:16;5.30;;;1.50;;
33279;SDS011;20403;43.114;12.434;2023-02-28T07:32:42;2.50;;;1.08;;
33279;SDS011;20403;43.114;12.434;2023-02-28T07:35:07;10.35;;;1.10;;
33279;SDS011;20403;43.114;12.434;2023-02-28T07:37:33;3.95;;;1.25;;
33279;SDS011;20403;43.114;12.434;2023-02-28T07:40:02;2.65;;;1.48;;
33279;SDS011;20403;43.114;12.434;2023-02-28T07:42:31;2.13;;;1.27;;
33279;SDS011;20403;43.114;12.434;2023-02-28T07:44:57;4.05;;;0.98;;
33279;SDS011;20403;43.114;12.434;2023-02-28T07:47:24;3.03;;;0.95;;
33279;SDS011;20403;43.114;12.434;2023-02-28T07:49:49;0.88;;;0.77;;
33279;SDS011;20403;43.114;12.434;2023-02-28T07:52:15;4.35;;;0.95;;
33279;SDS011;20403;43.114;12.434;2023-02-28T07:54:40;2.45;;;1.10;;
33279;SDS011;20403;43.114;12.434;2023-02-28T07:57:06;4.38;;;1.27;;
33279;SDS011;20403;43.114;12.434;2023-02-28T07:59:31;1.00;;;0.80;;
33279;SDS011;20403;43.114;12.434;2023-02-28T08:01:57;2.38;;;1.00;;
33279;SDS011;20403;43.114;12.434;2023-02-28T08:04:23;1.75;;;1.10;;
33279;SDS011;20403;43.114;12.434;2023-02-28T08:06:48;2.25;;;1.38;;
33279;SDS011;20403;43.114;12.434;2023-02-28T08:09:16;3.83;;;1.08;;
33279;SDS011;20403;43.114;12.434;2023-02-28T08:11:42;2.97;;;1.30;;
33279;SDS011;20403;43.114;12.434;2023-02-28T08:14:07;6.57;;;1.70;;
33279;SDS011;20403;43.114;12.434;2023-02-28T08:16:33;1.73;;;1.20;;
33279;SDS011;20403;43.114;12.434;2023-02-28T08:18:58;2.03;;;1.45;;
33279;SDS011;20403;43.114;12.434;2023-02-28T08:21:23;2.20;;;1.42;;
33279;SDS011;20403;43.114;12.434;2023-02-28T08:23:49;2.83;;;1.50;;
33279;SDS011;20403;43.114;12.434;2023-02-28T08:26:19;3.33;;;1.77;;
33279;SDS011;20403;43.114;12.434;2023-02-28T08:28:45;5.05;;;1.75;;
33279;SDS011;20403;43.114;12.434;2023-02-28T08:31:12;1.75;;;1.35;;
33279;SDS011;20403;43.114;12.434;2023-02-28T08:33:39;7.90;;;2.22;;
33279;SDS011;20403;43.114;12.434;2023-02-28T08:36:06;2.83;;;1.73;;
33279;SDS011;20403;43.114;12.434;2023-02-28T08:38:33;2.90;;;1.40;;
33279;SDS011;20403;43.114;12.434;2023-02-28T08:41:02;3.70;;;1.52;;
33279;SDS011;20403;43.114;12.434;2023-02-28T08:43:32;3.95;;;1.65;;
33279;SDS011;20403;43.114;12.434;2023-02-28T08:45:58;4.30;;;1.40;;
33279;SDS011;20403;43.114;12.434;2023-02-28T08:48:27;2.88;;;1.33;;
33279;SDS011;20403;43.114;12.434;2023-02-28T08:51:00;3.03;;;1.58;;
33279;SDS011;20403;43.114;12.434;2023-02-28T08:53:31;3.40;;;1.40;;
33279;SDS011;20403;43.114;12.434;2023-02-28T08:55:58;3.15;;;1.42;;
33279;SDS011;20403;43.114;12.434;2023-02-28T08:58:24;1.92;;;1.30;;
33279;SDS011;20403;43.114;12.434;2023-02-28T09:00:50;5.85;;;1.80;;
33279;SDS011;20403;43.114;12.434;2023-02-28T09:03:15;3.72;;;1.30;;
33279;SDS011;20403;43.114;12.434;2023-02-28T09:05:50;3.47;;;1.60;;
33279;SDS011;20403;43.114;12.434;2023-02-28T09:08:17;2.67;;;1.40;;
33279;SDS011;20403;43.114;12.434;2023-02-28T09:10:42;7.10;;;1.40;;
33279;SDS011;20403;43.114;12.434;2023-02-28T09:13:07;3.20;;;1.00;;
33279;SDS011;20403;43.114;12.434;2023-02-28T09:15:33;1.77;;;1.08;;
33279;SDS011;20403;43.114;12.434;2023-02-28T09:17:58;4.20;;;0.90;;
33279;SDS011;20403;43.114;12.434;2023-02-28T09:20:23;3.03;;;1.00;;
33279;SDS011;20403;43.114;12.434;2023-02-28T09:22:49;1.77;;;1.00;;
33279;SDS011;20403;43.114;12.434;2023-02-28T09:25:14;2.30;;;1.52;;
33279;SDS011;20403;43.114;12.434;2023-02-28T09:27:39;2.05;;;1.17;;
33279;SDS011;20403;43.114;12.434;2023-02-28T09:30:05;1.92;;;1.08;;
33279;SDS011;20403;43.114;12.434;2023-02-28T09:32:31;4.72;;;0.93;;
33279;SDS011;20403;43.114;12.434;2023-02-28T09:34:57;1.48;;;1.00;;
33279;SDS011;20403;43.114;12.434;2023-02-28T09:37:22;1.90;;;0.80;;
33279;SDS011;20403;43.114;12.434;2023-02-28T09:39:48;2.85;;;1.00;;
33279;SDS011;20403;43.114;12.434;2023-02-28T09:42:25;2.85;;;0.95;;
33279;SDS011;20403;43.114;12.434;2023-02-28T09:44:56;1.55;;;1.00;;
33279;SDS011;20403;43.114;12.434;2023-02-28T09:47:30;1.52;;;1.00;;
33279;SDS011;20403;43.114;12.434;2023-02-28T09:50:00;2.67;;;1.17;;
33279;SDS011;20403;43.114;12.434;2023-02-28T09:52:32;15.35;;;1.38;;
33279;SDS011;20403;43.114;12.434;2023-02-28T09:55:18;1.17;;;0.88;;
33279;SDS011;20403;43.114;12.434;2023-02-28T09:57:47;1.38;;;1.00;;
33279;SDS011;20403;43.114;12.434;2023-02-28T10:08:31;2.47;;;1.45;;
33279;SDS011;20403;43.114;12.434;2023-02-28T10:11:06;3.83;;;1.40;;
33279;SDS011;20403;43.114;12.434;2023-02-28T10:16:10;1.92;;;1.25;;
33279;SDS011;20403;43.114;12.434;2023-02-28T10:18:47;1.83;;;1.25;;
33279;SDS011;20403;43.114;12.434;2023-02-28T10:21:21;4.85;;;1.50;;
33279;SDS011;20403;43.114;12.434;2023-02-28T10:23:55;1.85;;;1.20;;
33279;SDS011;20403;43.114;12.434;2023-02-28T10:26:26;4.63;;;1.90;;
33279;SDS011;20403;43.114;12.434;2023-02-28T10:28:55;2.42;;;1.83;;
33279;SDS011;20403;43.114;12.434;2023-02-28T10:31:21;8.20;;;3.58;;
33279;SDS011;20403;43.114;12.434;2023-02-28T10:33:47;7.28;;;3.92;;
33279;SDS011;20403;43.114;12.434;2023-02-28T10:36:18;4.90;;;1.25;;
33279;SDS011;20403;43.114;12.434;2023-02-28T10:43:39;4.45;;;1.60;;
33279;SDS011;20403;43.114;12.434;2023-02-28T10:51:02;2.08;;;1.25;;
33279;SDS011;20403;43.114;12.434;2023-02-28T11:01:22;2.42;;;1.55;;
33279;SDS011;20403;43.114;12.434;2023-02-28T11:03:56;3.67;;;1.50;;
33279;SDS011;20403;43.114;12.434;2023-02-28T11:06:26;6.13;;;2.60;;
33279;SDS011;20403;43.114;12.434;2023-02-28T11:08:56;5.07;;;1.73;;
33279;SDS011;20403;43.114;12.434;2023-02-28T11:11:26;2.15;;;1.42;;
33279;SDS011;20403;43.114;12.434;2023-02-28T11:13:54;2.55;;;1.27;;
33279;SDS011;20403;43.114;12.434;2023-02-28T11:16:21;1.60;;;0.95;;
33279;SDS011;20403;43.114;12.434;2023-02-28T11:19:03;2.58;;;1.23;;
33279;SDS011;20403;43.114;12.434;2023-02-28T11:21:35;4.80;;;2.90;;
33279;SDS011;20403;43.114;12.434;2023-02-28T11:24:07;5.30;;;3.25;;
33279;SDS011;20403;43.114;12.434;2023-02-28T11:26:47;17.27;;;8.07;;
33279;SDS011;20403;43.114;12.434;2023-02-28T11:29:18;9.57;;;2.42;;
33279;SDS011;20403;43.114;12.434;2023-02-28T11:34:33;1.83;;;1.05;;
33279;SDS011;20403;43.114;12.434;2023-02-28T11:37:00;9.75;;;4.38;;
33279;SDS011;20403;43.114;12.434;2023-02-28T11:39:30;4.55;;;1.80;;
33279;SDS011;20403;43.114;12.434;2023-02-28T11:53:00;8.70;;;4.50;;
33279;SDS011;20403;43.114;12.434;2023-02-28T12:03:26;4.00;;;1.95;;
33279;SDS011;20403;43.114;12.434;2023-02-28T12:12:03;5.50;;;3.35;;
33279;SDS011;20403;43.114;12.434;2023-02-28T12:14:46;10.63;;;4.60;;
33279;SDS011;20403;43.114;12.434;2023-02-28T12:17:22;6.18;;;2.83;;
33279;SDS011;20403;43.114;12.434;2023-02-28T12:28:09;4.30;;;2.45;;
33279;SDS011;20403;43.114;12.434;2023-02-28T12:30:39;8.10;;;4.05;;
33279;SDS011;20403;43.114;12.434;2023-02-28T12:33:12;7.65;;;2.63;;
33279;SDS011;20403;43.114;12.434;2023-02-28T12:35:50;4.63;;;2.50;;
33279;SDS011;20403;43.114;12.434;2023-02-28T12:38:21;9.95;;;5.35;;
33279;SDS011;20403;43.114;12.434;2023-02-28T12:40:52;11.73;;;3.43;;
33279;SDS011;20403;43.114;12.434;2023-02-28T12:43:22;4.00;;;2.22;;
33279;SDS011;20403;43.114;12.434;2023-02-28T12:45:56;7.18;;;3.90;;
33279;SDS011;20403;43.114;12.434;2023-02-28T12:50:56;5.03;;;2.72;;
33279;SDS011;20403;43.114;12.434;2023-02-28T12:59:01;7.78;;;3.00;;
33279;SDS011;20403;43.114;12.434;2023-02-28T13:09:37;7.32;;;4.40;;
33279;SDS011;20403;43.114;12.434;2023-02-28T13:12:14;7.35;;;3.67;;
33279;SDS011;20403;43.114;12.434;2023-02-28T13:14:41;8.18;;;4.30;;
33279;SDS011;20403;43.114;12.434;2023-02-28T13:22:15;8.73;;;4.65;;
33279;SDS011;20403;43.114;12.434;2023-02-28T13:25:00;9.27;;;4.43;;
33279;SDS011;20403;43.114;12.434;2023-02-28T13:27:36;9.95;;;5.18;;
33279;SDS011;20403;43.114;12.434;2023-02-28T13:33:25;7.93;;;3.65;;
33279;SDS011;20403;43.114;12.434;2023-02-28T13:36:32;5.88;;;3.42;;
33279;SDS011;20403;43.114;12.434;2023-02-28T13:38:42;10.40;;;5.55;;
33279;SDS011;20403;43.114;12.434;2023-02-28T13:47:23;9.35;;;5.05;;
33279;SDS011;20403;43.114;12.434;2023-02-28T13:51:51;10.32;;;4.70;;
33279;SDS011;20403;43.114;12.434;2023-02-28T13:57:05;10.70;;;5.28;;
33279;SDS011;20403;43.114;12.434;2023-02-28T13:59:38;7.10;;;4.10;;
33279;SDS011;20403;43.114;12.434;2023-02-28T14:07:54;10.48;;;5.13;;
33279;SDS011;20403;43.114;12.434;2023-02-28T14:10:29;7.63;;;4.70;;
33279;SDS011;20403;43.114;12.434;2023-02-28T14:15:57;7.50;;;5.03;;
33279;SDS011;20403;43.114;12.434;2023-02-28T14:21:01;6.25;;;3.80;;
33279;SDS011;20403;43.114;12.434;2023-02-28T14:26:26;11.00;;;4.57;;
33279;SDS011;20403;43.114;12.434;2023-02-28T14:34:55;7.18;;;4.32;;
33279;SDS011;20403;43.114;12.434;2023-02-28T14:37:32;8.77;;;5.47;;
33279;SDS011;20403;43.114;12.434;2023-02-28T14:40:01;9.15;;;5.00;;
33279;SDS011;20403;43.114;12.434;2023-02-28T14:42:35;10.68;;;5.55;;
33279;SDS011;20403;43.114;12.434;2023-02-28T14:45:19;14.45;;;8.43;;
33279;SDS011;20403;43.114;12.434;2023-02-28T14:47:46;10.90;;;7.10;;
33279;SDS011;20403;43.114;12.434;2023-02-28T14:50:19;10.77;;;5.43;;
33279;SDS011;20403;43.114;12.434;2023-02-28T14:52:46;8.50;;;5.40;;
33279;SDS011;20403;43.114;12.434;2023-02-28T14:55:15;9.60;;;5.63;;
33279;SDS011;20403;43.114;12.434;2023-02-28T14:57:54;9.20;;;4.85;;
33279;SDS011;20403;43.114;12.434;2023-02-28T15:02:51;10.43;;;6.63;;
33279;SDS011;20403;43.114;12.434;2023-02-28T15:08:11;9.32;;;5.80;;
33279;SDS011;20403;43.114;12.434;2023-02-28T15:10:39;17.05;;;8.50;;
33279;SDS011;20403;43.114;12.434;2023-02-28T15:13:11;8.15;;;5.15;;
33279;SDS011;20403;43.114;12.434;2023-02-28T15:21:06;12.73;;;5.10;;
33279;SDS011;20403;43.114;12.434;2023-02-28T15:23:43;8.45;;;5.43;;
33279;SDS011;20403;43.114;12.434;2023-02-28T15:26:13;9.30;;;5.30;;
33279;SDS011;20403;43.114;12.434;2023-02-28T15:28:44;12.35;;;6.65;;
33279;SDS011;20403;43.114;12.434;2023-02-28T15:31:21;16.90;;;7.50;;
33279;SDS011;20403;43.114;12.434;2023-02-28T15:33:56;11.25;;;4.97;;
33279;SDS011;20403;43.114;12.434;2023-02-28T15:36:28;9.75;;;4.95;;
33279;SDS011;20403;43.114;12.434;2023-02-28T15:38:56;8.00;;;4.55;;
33279;SDS011;20403;43.114;12.434;2023-02-28T15:41:26;7.88;;;4.75;;
33279;SDS011;20403;43.114;12.434;2023-02-28T15:49:37;15.15;;;6.18;;
33279;SDS011;20403;43.114;12.434;2023-02-28T15:52:05;17.67;;;8.63;;
33279;SDS011;20403;43.114;12.434;2023-02-28T15:54:33;15.07;;;7.85;;
33279;SDS011;20403;43.114;12.434;2023-02-28T15:57:12;15.35;;;7.78;;
33279;SDS011;20403;43.114;12.434;2023-02-28T15:59:45;21.67;;;10.75;;
33279;SDS011;20403;43.114;12.434;2023-02-28T16:02:20;16.08;;;7.97;;
33279;SDS011;20403;43.114;12.434;2023-02-28T16:07:37;12.27;;;6.20;;
33279;SDS011;20403;43.114;12.434;2023-02-28T16:10:08;14.98;;;7.65;;
33279;SDS011;20403;43.114;12.434;2023-02-28T16:12:36;13.57;;;7.10;;
33279;SDS011;20403;43.114;12.434;2023-02-28T16:17:56;8.93;;;5.55;;
33279;SDS011;20403;43.114;12.434;2023-02-28T16:20:29;14.55;;;7.30;;
33279;SDS011;20403;43.114;12.434;2023-02-28T16:22:56;17.10;;;7.68;;
33279;SDS011;20403;43.114;12.434;2023-02-28T16:25:26;17.70;;;9.60;;
33279;SDS011;20403;43.114;12.434;2023-02-28T16:27:58;13.35;;;6.63;;
33279;SDS011;20403;43.114;12.434;2023-02-28T16:30:26;9.07;;;5.88;;
33279;SDS011;20403;43.114;12.434;2023-02-28T16:32:54;25.40;;;13.32;;
33279;SDS011;20403;43.114;12.434;2023-02-28T16:35:20;13.85;;;7.75;;
33279;SDS011;20403;43.114;12.434;2023-02-28T16:37:47;11.98;;;6.53;;
33279;SDS011;20403;43.114;12.434;2023-02-28T16:40:16;27.58;;;13.65;;
33279;SDS011;20403;43.114;12.434;2023-02-28T16:42:45;13.18;;;8.07;;
33279;SDS011;20403;43.114;12.434;2023-02-28T16:45:23;21.23;;;11.90;;
33279;SDS011;20403;43.114;12.434;2023-02-28T16:47:51;10.40;;;5.88;;
33279;SDS011;20403;43.114;12.434;2023-02-28T16:50:18;19.55;;;11.77;;
33279;SDS011;20403;43.114;12.434;2023-02-28T16:52:54;12.02;;;6.40;;
33279;SDS011;20403;43.114;12.434;2023-02-28T16:55:20;10.27;;;5.80;;
33279;SDS011;20403;43.114;12.434;2023-02-28T16:57:51;10.70;;;6.65;;
33279;SDS011;20403;43.114;12.434;2023-02-28T17:00:21;13.07;;;6.50;;
33279;SDS011;20403;43.114;12.434;2023-02-28T17:02:48;12.02;;;7.90;;
33279;SDS011;20403;43.114;12.434;2023-02-28T17:05:13;15.93;;;5.35;;
33279;SDS011;20403;43.114;12.434;2023-02-28T17:07:40;9.00;;;6.05;;
33279;SDS011;20403;43.114;12.434;2023-02-28T17:10:14;9.80;;;5.05;;
33279;SDS011;20403;43.114;12.434;2023-02-28T17:12:39;8.63;;;5.68;;
33279;SDS011;20403;43.114;12.434;2023-02-28T17:15:05;11.00;;;6.40;;
33279;SDS011;20403;43.114;12.434;2023-02-28T17:17:31;11.88;;;5.13;;
33279;SDS011;20403;43.114;12.434;2023-02-28T17:19:57;11.30;;;6.43;;
33279;SDS011;20403;43.114;12.434;2023-02-28T17:22:22;14.77;;;7.22;;
33279;SDS011;20403;43.114;12.434;2023-02-28T17:24:48;8.93;;;5.82;;
33279;SDS011;20403;43.114;12.434;2023-02-28T17:27:13;24.25;;;13.30;;
33279;SDS011;20403;43.114;12.434;2023-02-28T17:29:38;10.57;;;6.43;;
33279;SDS011;20403;43.114;12.434;2023-02-28T17:32:04;15.35;;;7.53;;
33279;SDS011;20403;43.114;12.434;2023-02-28T17:34:29;13.38;;;6.57;;
33279;SDS011;20403;43.114;12.434;2023-02-28T17:36:55;16.90;;;8.68;;
33279;SDS011;20403;43.114;12.434;2023-02-28T17:39:20;14.57;;;7.20;;
33279;SDS011;20403;43.114;12.434;2023-02-28T17:41:52;14.85;;;7.20;;
33279;SDS011;20403;43.114;12.434;2023-02-28T17:44:19;12.77;;;7.13;;
33279;SDS011;20403;43.114;12.434;2023-02-28T17:46:45;12.20;;;6.45;;